Time;durP1;ratioP1;P1;durP2;ratioP2;P2;SDS_P1;SDS_P2;PMS_P1;PMS_P2;Temp;Humidity;BMP_temperature;BMP_pressure;BME280_temperature;BME280_humidity;BME280_pressure;Samples;Min_cycle;Max_cycle;Signal;HPM_P1;HPM_P2
2023/10/29 00:02:12;;;;;;;2.50;1.50;;;;;;;9.62;90.37;98152.42;105811;1254;74265;-27
2023/10/29 00:04:40;;;;;;;2.50;1.20;;;;;;;9.34;91.73;98148.24;105687;1254;72456;-27
2023/10/29 00:07:07;;;;;;;1.30;1.00;;;;;;;9.19;92.87;98142.51;105879;1256;61938;-27
2023/10/29 00:09:34;;;;;;;4.60;1.20;;;;;;;9.56;92.06;98146.36;105950;1256;61154;-28
2023/10/29 00:12:02;;;;;;;1.70;1.00;;;;;;;9.93;89.99;98147.15;105936;1254;73684;-27
2023/10/29 00:14:29;;;;;;;1.80;1.30;;;;;;;9.91;89.20;98142.02;105906;1257;74307;-27
2023/10/29 00:16:58;;;;;;;1.40;1.00;;;;;;;9.67;90.01;98137.09;105943;1254;72460;-27
2023/10/29 00:19:25;;;;;;;3.10;1.00;;;;;;;9.40;91.30;98134.53;105951;1254;61058;-27
2023/10/29 00:21:52;;;;;;;2.90;1.10;;;;;;;9.17;93.13;98139.36;105883;1256;61178;-27
2023/10/29 00:24:19;;;;;;;4.50;1.40;;;;;;;9.50;92.43;98143.70;105847;1254;73805;-27
2023/10/29 00:26:46;;;;;;;2.70;1.10;;;;;;;9.86;89.67;98147.61;105684;1254;74320;-27
2023/10/29 00:29:13;;;;;;;1.70;1.20;;;;;;;9.92;89.04;98144.89;105861;1254;71603;-27
2023/10/29 00:31:40;;;;;;;1.70;1.20;;;;;;;9.74;89.70;98142.54;105721;1253;61077;-27
2023/10/29 00:34:07;;;;;;;3.80;1.20;;;;;;;9.50;90.88;98133.63;105526;1257;61247;-27
2023/10/29 00:36:34;;;;;;;2.70;1.40;;;;;;;9.28;92.20;98136.83;105812;1254;73506;-27
2023/10/29 00:39:02;;;;;;;1.90;1.00;;;;;;;9.08;94.00;98139.12;105734;1256;74309;-27
2023/10/29 00:41:30;;;;;;;1.80;1.10;;;;;;;9.45;92.77;98139.55;105629;1254;72538;-27
2023/10/29 00:43:57;;;;;;;1.60;1.00;;;;;;;9.77;90.36;98143.84;105519;1254;61096;-27
2023/10/29 00:46:24;;;;;;;2.20;1.30;;;;;;;9.69;89.75;98152.54;105681;1253;61179;-27
2023/10/29 00:48:51;;;;;;;1.70;1.00;;;;;;;9.46;90.65;98159.92;105540;1254;73847;-27
2023/10/29 00:51:18;;;;;;;4.00;1.20;;;;;;;9.21;91.77;98163.06;105830;1256;74274;-27
2023/10/29 00:53:45;;;;;;;3.30;0.90;;;;;;;9.03;92.67;98163.77;105483;1254;72659;-27
2023/10/29 00:56:14;;;;;;;3.40;1.00;;;;;;;9.41;92.09;98168.90;105558;1259;61224;-27
2023/10/29 00:58:42;;;;;;;1.30;0.90;;;;;;;9.61;90.42;98169.88;105490;1253;61126;-28
2023/10/29 01:01:10;;;;;;;1.20;0.90;;;;;;;9.54;90.71;98174.51;105663;1254;72705;-27
2023/10/29 01:03:37;;;;;;;1.50;1.00;;;;;;;9.35;91.32;98178.23;105540;1254;74443;-28
2023/10/29 01:06:05;;;;;;;1.80;1.30;;;;;;;9.14;92.10;98179.61;105701;1256;72614;-28
2023/10/29 01:08:33;;;;;;;1.50;0.80;;;;;;;8.97;92.93;98179.91;105479;1254;61062;-27
2023/10/29 01:11:00;;;;;;;1.20;0.90;;;;;;;9.36;92.23;98181.96;105788;1257;61112;-27
2023/10/29 01:13:27;;;;;;;2.20;1.00;;;;;;;9.81;89.46;98186.98;105724;1254;73699;-28
2023/10/29 01:15:54;;;;;;;1.20;1.00;;;;;;;9.79;88.93;98187.33;105599;1254;74206;-27
2023/10/29 01:18:22;;;;;;;2.00;0.90;;;;;;;9.61;89.11;98182.15;105686;1254;71531;-27
2023/10/29 01:20:49;;;;;;;1.20;1.00;;;;;;;9.33;90.22;98184.02;105808;1256;61176;-26
2023/10/29 01:23:17;;;;;;;1.60;0.90;;;;;;;9.12;91.28;98184.34;105682;1260;61142;-27
2023/10/29 01:25:45;;;;;;;1.10;0.70;;;;;;;9.42;90.97;98185.78;105681;1254;73900;-27
2023/10/29 01:28:12;;;;;;;1.30;0.80;;;;;;;9.76;88.66;98186.38;105694;1254;74229;-27
2023/10/29 01:30:39;;;;;;;2.00;0.90;;;;;;;9.76;88.22;98179.94;105739;1254;72660;-27
2023/10/29 01:33:07;;;;;;;5.70;1.10;;;;;;;9.56;88.50;98176.16;105842;1254;61214;-27
2023/10/29 01:35:34;;;;;;;1.30;1.10;;;;;;;9.26;89.65;98181.81;105640;1256;61186;-27
2023/10/29 01:38:01;;;;;;;3.00;1.30;;;;;;;9.00;90.25;98188.29;105691;1253;73800;-27
2023/10/29 01:40:28;;;;;;;1.70;0.90;;;;;;;8.73;92.29;98184.94;105832;1255;74131;-27
2023/10/29 01:42:56;;;;;;;1.10;0.80;;;;;;;9.11;91.78;98181.42;105686;1254;72529;-27
2023/10/29 01:45:23;;;;;;;1.40;0.80;;;;;;;9.59;89.17;98182.02;105765;1254;61163;-27
2023/10/29 01:47:50;;;;;;;1.00;0.80;;;;;;;9.61;88.17;98189.61;105604;1254;61157;-27
2023/10/29 01:50:17;;;;;;;2.10;1.30;;;;;;;9.37;88.36;98189.70;105653;1254;73866;-27
2023/10/29 01:52:44;;;;;;;1.20;0.90;;;;;;;9.06;89.13;98194.17;105483;1254;74423;-27
2023/10/29 01:55:12;;;;;;;1.80;1.00;;;;;;;8.73;90.11;98203.22;105732;1253;73181;-27
2023/10/29 01:57:39;;;;;;;1.00;0.60;;;;;;;8.46;90.85;98209.02;105654;1254;61679;-27
2023/10/29 02:00:08;;;;;;;2.20;0.80;;;;;;;8.77;90.92;98210.02;105445;1259;61170;-26
2023/10/29 02:02:38;;;;;;;2.50;0.80;;;;;;;9.19;89.11;98211.92;105582;1259;72686;-27
2023/10/29 02:05:06;;;;;;;1.70;0.80;;;;;;;9.17;88.35;98214.32;105702;1254;74330;-27
2023/10/29 02:07:33;;;;;;;1.50;1.10;;;;;;;8.93;88.73;98212.27;105727;1259;72505;-27
2023/10/29 02:10:01;;;;;;;4.30;0.90;;;;;;;8.65;90.27;98211.95;105730;1254;61268;-27
2023/10/29 02:12:28;;;;;;;1.20;0.90;;;;;;;8.41;91.83;98213.46;105640;1254;61125;-27
2023/10/29 02:14:56;;;;;;;1.10;0.80;;;;;;;8.21;93.19;98217.21;105693;1254;73832;-27
2023/10/29 02:17:25;;;;;;;1.90;0.70;;;;;;;8.60;93.12;98222.19;105678;1256;74381;-27
2023/10/29 02:19:54;;;;;;;1.20;0.80;;;;;;;9.10;90.11;98224.80;105603;1257;71970;-26
2023/10/29 02:22:26;;;;;;;1.70;1.10;;;;;;;9.17;89.15;98224.75;105638;1253;61250;-28
2023/10/29 02:24:54;;;;;;;1.90;0.90;;;;;;;8.99;89.75;98233.54;105647;1253;61162;-27
2023/10/29 02:27:22;;;;;;;2.60;1.30;;;;;;;8.70;91.75;98239.70;105651;1254;73821;-26
2023/10/29 02:29:49;;;;;;;1.70;1.10;;;;;;;8.42;93.83;98243.99;105931;1254;75126;-27
2023/10/29 02:32:16;;;;;;;1.00;0.90;;;;;;;8.48;94.74;98246.05;105890;1254;72594;-27
2023/10/29 02:34:43;;;;;;;1.80;1.10;;;;;;;9.04;92.18;98240.91;105712;1254;61856;-27
2023/10/29 02:37:10;;;;;;;1.40;0.90;;;;;;;9.18;90.92;98238.64;105665;1260;61164;-26
2023/10/29 02:39:38;;;;;;;1.90;1.00;;;;;;;9.09;90.80;98244.13;105879;1254;72545;-27
2023/10/29 02:42:06;;;;;;;2.60;1.20;;;;;;;8.97;90.78;98243.76;105960;1254;74300;-27
2023/10/29 02:44:33;;;;;;;1.80;1.10;;;;;;;8.77;91.88;98250.31;105861;1254;72566;-27
2023/10/29 02:47:00;;;;;;;1.10;0.90;;;;;;;8.58;93.34;98255.61;105896;1254;61678;-27
2023/10/29 02:49:27;;;;;;;3.10;1.20;;;;;;;8.99;92.63;98249.52;105901;1256;61205;-27
2023/10/29 02:51:54;;;;;;;5.20;2.70;;;;;;;9.44;90.38;98240.84;105759;1254;73561;-27
2023/10/29 02:54:21;;;;;;;5.10;2.20;;;;;;;9.53;89.01;98236.23;105935;1254;74374;-26
2023/10/29 02:56:48;;;;;;;5.50;2.60;;;;;;;9.30;89.36;98237.08;105904;1253;72997;-27
2023/10/29 02:59:15;;;;;;;4.00;2.10;;;;;;;9.03;90.16;98243.58;105672;1254;61055;-26
2023/10/29 03:01:42;;;;;;;4.20;2.40;;;;;;;8.77;91.25;98252.05;105767;1256;61186;-27
2023/10/29 03:04:09;;;;;;;5.20;1.20;;;;;;;8.56;92.22;98255.73;105590;1254;74180;-27
2023/10/29 03:06:43;;;;;;;3.40;1.00;;;;;;;8.99;91.75;98259.88;105800;1254;74303;-27
2023/10/29 03:09:13;;;;;;;1.30;0.80;;;;;;;9.52;89.24;98264.03;105697;1257;71951;-27
2023/10/29 03:11:40;;;;;;;1.10;0.70;;;;;;;9.55;88.50;98263.65;105639;1254;61090;-27
2023/10/29 03:14:07;;;;;;;3.40;1.10;;;;;;;9.27;88.34;98266.94;105822;1253;61051;-28
2023/10/29 03:16:34;;;;;;;2.00;1.10;;;;;;;8.93;89.91;98269.06;105698;1255;73669;-27
2023/10/29 03:19:01;;;;;;;3.40;1.80;;;;;;;8.60;92.15;98270.48;105897;1254;74076;-27
2023/10/29 03:21:29;;;;;;;3.00;1.00;;;;;;;8.44;93.25;98276.45;105775;1254;72669;-27
2023/10/29 03:23:56;;;;;;;2.70;0.80;;;;;;;8.91;92.03;98276.67;105721;1252;61150;-27
2023/10/29 03:26:23;;;;;;;1.90;1.10;;;;;;;9.37;89.63;98279.05;105723;1257;61206;-27
2023/10/29 03:28:50;;;;;;;2.80;1.00;;;;;;;9.36;88.90;98283.68;105727;1254;73395;-27
2023/10/29 03:31:18;;;;;;;2.60;0.80;;;;;;;9.23;89.06;98287.91;105827;1254;74027;-27
2023/10/29 03:33:47;;;;;;;1.90;0.80;;;;;;;8.96;89.87;98295.79;105568;1254;72733;-27
2023/10/29 03:36:14;;;;;;;1.50;0.90;;;;;;;8.68;90.81;98297.34;105502;1253;61201;-27
2023/10/29 03:38:41;;;;;;;1.20;0.70;;;;;;;8.47;92.04;98303.18;105636;1258;61150;-28
2023/10/29 03:41:22;;;;;;;1.70;0.90;;;;;;;8.82;91.94;98298.38;105284;1254;73904;-28
2023/10/29 03:43:49;;;;;;;3.10;0.70;;;;;;;9.28;89.75;98296.97;105585;1261;74351;-28
2023/10/29 03:46:16;;;;;;;2.40;1.00;;;;;;;9.25;89.12;98300.61;105702;1254;72664;-27
2023/10/29 03:48:45;;;;;;;1.90;1.00;;;;;;;8.88;90.48;98300.42;105865;1254;61175;-28
2023/10/29 03:51:12;;;;;;;1.70;0.90;;;;;;;8.69;91.15;98301.05;105731;1257;61212;-27
2023/10/29 03:53:40;;;;;;;2.90;1.10;;;;;;;8.46;92.02;98307.92;105620;1259;73940;-28
2023/10/29 03:56:08;;;;;;;1.40;1.00;;;;;;;8.27;92.91;98316.85;105698;1259;74335;-27
2023/10/29 03:58:35;;;;;;;1.20;0.80;;;;;;;8.68;91.95;98319.99;105798;1254;72727;-28
2023/10/29 04:01:03;;;;;;;1.30;0.90;;;;;;;9.06;90.11;98325.20;105626;1253;61102;-28
2023/10/29 04:03:31;;;;;;;3.30;1.10;;;;;;;9.06;89.97;98334.39;105519;1262;61198;-28
2023/10/29 04:05:58;;;;;;;2.40;1.20;;;;;;;8.92;90.36;98336.78;105569;1253;73954;-27
2023/10/29 04:08:25;;;;;;;4.90;1.20;;;;;;;8.70;91.10;98339.20;105787;1254;74355;-27
2023/10/29 04:10:52;;;;;;;3.00;1.30;;;;;;;8.50;91.54;98340.73;105758;1254;72338;-27
2023/10/29 04:13:19;;;;;;;2.00;1.30;;;;;;;8.28;94.58;98340.96;105880;1252;61871;-28
2023/10/29 04:15:47;;;;;;;2.50;1.30;;;;;;;8.77;92.98;98340.17;105503;1259;61160;-27
2023/10/29 04:18:14;;;;;;;2.70;1.30;;;;;;;9.06;90.88;98334.55;105748;1254;72812;-27
2023/10/29 04:20:41;;;;;;;1.50;1.40;;;;;;;9.00;90.71;98334.76;105722;1259;74224;-27
2023/10/29 04:23:09;;;;;;;3.60;1.60;;;;;;;8.78;91.29;98343.54;105959;1254;72446;-27
2023/10/29 04:25:35;;;;;;;2.40;1.30;;;;;;;8.48;93.31;98343.12;105781;1254;61180;-27
2023/10/29 04:28:03;;;;;;;3.70;1.30;;;;;;;8.33;94.30;98341.21;105691;1259;61082;-27
2023/10/29 04:30:30;;;;;;;2.20;0.90;;;;;;;8.77;93.54;98345.72;105882;1254;73914;-27
2023/10/29 04:32:57;;;;;;;2.10;1.40;;;;;;;9.16;90.89;98350.74;105588;1254;74291;-28
2023/10/29 04:35:25;;;;;;;6.30;1.50;;;;;;;9.09;90.30;98352.36;105601;1252;71124;-28
2023/10/29 04:37:52;;;;;;;1.90;1.40;;;;;;;8.86;91.35;98353.58;105786;1252;61223;-28
2023/10/29 04:40:19;;;;;;;2.80;1.80;;;;;;;8.67;92.31;98353.98;105651;1252;61106;-27
2023/10/29 04:42:45;;;;;;;1.40;1.10;;;;;;;8.52;93.03;98358.02;105845;1254;73870;-28
2023/10/29 04:45:12;;;;;;;3.60;1.30;;;;;;;8.88;92.84;98363.96;105803;1254;74245;-28
2023/10/29 04:47:40;;;;;;;2.60;1.30;;;;;;;9.33;90.68;98369.14;105615;1253;72623;-28
2023/10/29 04:50:07;;;;;;;1.90;1.20;;;;;;;9.31;90.08;98373.16;105742;1253;61254;-27
2023/10/29 04:52:34;;;;;;;2.30;1.60;;;;;;;9.15;90.79;98376.57;105613;1259;61202;-28
2023/10/29 04:55:01;;;;;;;3.30;1.70;;;;;;;8.96;91.55;98378.38;105917;1254;73817;-28
2023/10/29 04:57:29;;;;;;;2.10;1.50;;;;;;;8.79;92.78;98379.42;105758;1256;74319;-28
2023/10/29 04:59:57;;;;;;;1.40;1.10;;;;;;;8.66;93.83;98380.19;105790;1254;73176;-28
2023/10/29 05:02:24;;;;;;;1.80;1.30;;;;;;;9.15;93.08;98378.86;105652;1259;61106;-30
2023/10/29 05:04:51;;;;;;;2.20;1.50;;;;;;;9.69;89.92;98381.13;105899;1253;61166;-28
2023/10/29 05:07:19;;;;;;;2.50;1.90;;;;;;;9.78;88.66;98379.95;105717;1254;73934;-28
2023/10/29 05:09:46;;;;;;;3.80;1.90;;;;;;;9.63;89.05;98380.55;105726;1255;74349;-28
2023/10/29 05:12:14;;;;;;;5.20;1.90;;;;;;;9.40;90.21;98389.83;105640;1254;72457;-28
2023/10/29 05:14:42;;;;;;;3.60;2.00;;;;;;;9.16;91.17;98401.57;105711;1252;61144;-28
2023/10/29 05:17:10;;;;;;;4.10;1.60;;;;;;;8.98;92.55;98403.50;105554;1256;61179;-28
2023/10/29 05:19:39;;;;;;;2.50;1.50;;;;;;;9.43;91.93;98412.63;105612;1254;74236;-28
2023/10/29 05:22:06;;;;;;;3.10;1.50;;;;;;;9.95;89.31;98413.98;105613;1256;74020;-27
2023/10/29 05:24:33;;;;;;;2.90;2.00;;;;;;;10.02;88.33;98413.54;105895;1256;72552;-28
2023/10/29 05:27:00;;;;;;;5.70;2.50;;;;;;;9.84;88.45;98420.85;105882;1254;61098;-28
2023/10/29 05:29:28;;;;;;;2.10;1.70;;;;;;;9.53;89.65;98423.54;105581;1256;61108;-27
2023/10/29 05:31:55;;;;;;;2.40;1.80;;;;;;;9.26;90.93;98430.59;105725;1254;73529;-28
2023/10/29 05:34:22;;;;;;;2.10;1.50;;;;;;;9.31;92.27;98432.35;105578;1255;74298;-27
2023/10/29 05:36:49;;;;;;;4.60;1.60;;;;;;;9.54;91.49;98440.58;105518;1254;72627;-28
2023/10/29 05:39:16;;;;;;;2.80;1.70;;;;;;;9.70;90.67;98439.83;105835;1254;61044;-28
2023/10/29 05:41:43;;;;;;;3.20;2.20;;;;;;;9.62;90.16;98441.15;105735;1257;61164;-28
2023/10/29 05:44:10;;;;;;;4.70;2.00;;;;;;;9.47;90.51;98445.51;105791;1254;73713;-28
2023/10/29 05:46:39;;;;;;;3.10;1.50;;;;;;;9.30;91.75;98448.55;105650;1257;74359;-28
2023/10/29 05:49:07;;;;;;;4.00;1.60;;;;;;;9.65;91.47;98448.67;105684;1259;72631;-28
2023/10/29 05:51:34;;;;;;;2.70;1.80;;;;;;;10.12;89.34;98449.98;105697;1255;61096;-28
2023/10/29 05:54:01;;;;;;;3.80;2.20;;;;;;;10.09;88.23;98452.98;105672;1256;61144;-27
2023/10/29 05:56:28;;;;;;;3.80;2.00;;;;;;;9.90;88.63;98455.89;105517;1254;74210;-28
2023/10/29 05:58:56;;;;;;;5.10;2.00;;;;;;;9.66;89.71;98454.02;105580;1254;74550;-28
2023/10/29 06:01:23;;;;;;;2.30;1.60;;;;;;;9.43;91.65;98462.56;105819;1255;73421;-28
2023/10/29 06:03:50;;;;;;;2.60;1.80;;;;;;;9.88;90.46;98463.04;105572;1253;61240;-27
2023/10/29 06:06:18;;;;;;;4.70;2.50;;;;;;;10.28;88.37;98459.98;105563;1260;61167;-28
2023/10/29 06:08:45;;;;;;;3.60;1.60;;;;;;;10.32;87.62;98457.77;105567;1254;73711;-28
2023/10/29 06:11:12;;;;;;;3.60;2.10;;;;;;;10.17;87.65;98462.34;105793;1256;73166;-28
2023/10/29 06:13:39;;;;;;;2.90;2.00;;;;;;;9.88;89.14;98458.63;105827;1256;71465;-28
2023/10/29 06:16:08;;;;;;;2.80;1.70;;;;;;;9.70;90.23;98464.02;105896;1252;61156;-27
2023/10/29 06:18:35;;;;;;;2.20;1.50;;;;;;;9.70;90.92;98466.45;105674;1254;61063;-28
2023/10/29 06:21:03;;;;;;;2.50;1.80;;;;;;;10.27;89.60;98456.56;105806;1254;74404;-28
2023/10/29 06:23:31;;;;;;;3.20;1.70;;;;;;;10.51;87.78;98456.21;105682;1254;74256;-28
2023/10/29 06:25:58;;;;;;;2.30;1.60;;;;;;;10.46;87.27;98455.27;105569;1254;72548;-28
2023/10/29 06:28:25;;;;;;;2.20;1.50;;;;;;;10.32;87.89;98452.73;105780;1254;61144;-28
2023/10/29 06:30:52;;;;;;;2.10;1.60;;;;;;;10.15;88.02;98454.74;105688;1252;61240;-28
2023/10/29 06:33:19;;;;;;;3.00;1.30;;;;;;;10.00;89.40;98462.61;105822;1257;73734;-28
2023/10/29 06:35:47;;;;;;;2.70;1.60;;;;;;;10.40;89.64;98454.28;105848;1256;74207;-28
2023/10/29 06:38:14;;;;;;;5.30;1.80;;;;;;;10.83;86.66;98456.31;105694;1254;72707;-30
2023/10/29 06:40:41;;;;;;;2.20;1.50;;;;;;;10.96;85.34;98470.10;105724;1253;61132;-28
2023/10/29 06:43:09;;;;;;;2.00;1.60;;;;;;;10.78;85.87;98474.69;105826;1257;61161;-28
2023/10/29 06:45:39;;;;;;;2.70;1.60;;;;;;;10.68;86.43;98474.84;105881;1254;73909;-28
2023/10/29 06:48:06;;;;;;;2.30;1.70;;;;;;;10.62;87.46;98475.56;105846;1254;74394;-28
2023/10/29 06:50:33;;;;;;;3.10;1.70;;;;;;;10.61;87.89;98475.86;105917;1254;73187;-28
2023/10/29 06:53:02;;;;;;;3.10;1.90;;;;;;;10.56;87.68;98477.36;105731;1254;61486;-28
2023/10/29 06:55:29;;;;;;;2.60;1.30;;;;;;;10.69;87.92;98477.53;105729;1259;61108;-28
2023/10/29 06:57:56;;;;;;;2.90;1.50;;;;;;;11.41;85.62;98482.04;105820;1254;73889;-28
2023/10/29 07:00:23;;;;;;;3.30;1.70;;;;;;;11.97;82.45;98482.67;105566;1255;74359;-28
2023/10/29 07:02:50;;;;;;;4.60;2.00;;;;;;;12.08;80.68;98483.96;105851;1254;73085;-28
2023/10/29 07:05:17;;;;;;;4.20;2.00;;;;;;;12.09;80.59;98484.92;105561;1254;61162;-28
2023/10/29 07:07:45;;;;;;;2.70;1.80;;;;;;;12.11;80.84;98490.84;105651;1257;61102;-28
2023/10/29 07:10:12;;;;;;;5.50;2.40;;;;;;;12.09;81.34;98490.85;105716;1254;73971;-28
2023/10/29 07:12:39;;;;;;;4.20;2.20;;;;;;;11.95;81.23;98491.60;105794;1257;74320;-28
2023/10/29 07:15:09;;;;;;;3.00;2.20;;;;;;;11.84;81.84;98495.92;105704;1254;71367;-28
2023/10/29 07:17:36;;;;;;;5.40;2.60;;;;;;;11.79;82.22;98499.74;105528;1254;61195;-28
2023/10/29 07:20:04;;;;;;;3.70;2.40;;;;;;;11.84;80.55;98501.89;105635;1259;61115;-28
2023/10/29 07:22:31;;;;;;;3.90;2.00;;;;;;;11.91;80.44;98502.97;105441;1254;73838;-28
2023/10/29 07:24:59;;;;;;;4.90;2.70;;;;;;;11.97;79.93;98505.33;105838;1256;74179;-28
2023/10/29 07:27:26;;;;;;;4.70;2.30;;;;;;;11.95;79.80;98506.89;105576;1254;72459;-28
2023/10/29 07:29:53;;;;;;;3.80;2.50;;;;;;;11.93;79.54;98510.07;105844;1254;61159;-28
2023/10/29 07:32:20;;;;;;;4.70;2.20;;;;;;;11.89;80.26;98514.77;105656;1258;61140;-29
2023/10/29 07:34:47;;;;;;;3.60;2.20;;;;;;;11.77;78.98;98504.98;105726;1254;73522;-28
2023/10/29 07:37:15;;;;;;;4.80;2.50;;;;;;;11.75;80.27;98514.38;105655;1259;74333;-28
2023/10/29 07:39:42;;;;;;;4.70;2.80;;;;;;;11.76;80.51;98514.98;105681;1254;72989;-28
2023/10/29 07:42:09;;;;;;;3.30;1.90;;;;;;;11.85;80.08;98523.36;105662;1254;61922;-28
2023/10/29 07:44:36;;;;;;;3.90;2.50;;;;;;;12.29;78.01;98520.70;105662;1257;61163;-29
2023/10/29 07:47:07;;;;;;;6.30;2.30;;;;;;;12.77;76.69;98527.19;105640;1254;73504;-29
2023/10/29 07:49:37;;;;;;;3.50;2.00;;;;;;;13.05;75.44;98527.84;105498;1254;74170;-28
2023/10/29 07:52:05;;;;;;;3.40;2.40;;;;;;;13.11;74.47;98532.09;105710;1254;72461;-28
2023/10/29 07:54:32;;;;;;;4.20;2.60;;;;;;;13.22;73.53;98539.80;105634;1259;61216;-28
2023/10/29 07:57:00;;;;;;;5.00;2.70;;;;;;;13.30;72.67;98547.48;105710;1252;61160;-28
2023/10/29 07:59:27;;;;;;;4.00;2.50;;;;;;;13.38;73.64;98546.27;105723;1254;73715;-28
2023/10/29 08:01:54;;;;;;;4.50;2.60;;;;;;;13.47;72.11;98548.01;105876;1254;73394;-28
2023/10/29 08:04:21;;;;;;;3.50;2.30;;;;;;;13.39;72.47;98548.80;105776;1254;72665;-28
2023/10/29 08:06:48;;;;;;;4.80;2.30;;;;;;;13.13;72.00;98549.85;105615;1254;61139;-29
2023/10/29 08:09:16;;;;;;;5.20;2.80;;;;;;;13.00;74.24;98555.67;105580;1257;61173;-28
2023/10/29 08:11:44;;;;;;;5.40;2.90;;;;;;;12.96;75.16;98556.53;105697;1253;73875;-28
2023/10/29 08:14:11;;;;;;;4.60;2.40;;;;;;;12.80;74.62;98560.50;105720;1256;74223;-28
2023/10/29 08:16:39;;;;;;;4.20;2.30;;;;;;;12.76;75.01;98573.64;105521;1254;72760;-28
2023/10/29 08:19:06;;;;;;;4.40;3.10;;;;;;;12.77;75.00;98579.63;105612;1254;61163;-28
2023/10/29 08:21:33;;;;;;;3.00;2.30;;;;;;;12.69;75.52;98582.41;105889;1256;61186;-28
2023/10/29 08:24:00;;;;;;;3.90;2.50;;;;;;;12.56;75.07;98582.89;105822;1254;73695;-28
2023/10/29 08:26:29;;;;;;;4.20;2.20;;;;;;;12.64;75.51;98589.98;105889;1256;74354;-28
2023/10/29 08:29:17;;;;;;;3.90;2.20;;;;;;;13.13;73.00;98587.67;105299;1257;72579;-28
2023/10/29 08:31:44;;;;;;;3.30;2.10;;;;;;;13.39;73.10;98596.52;105392;1257;61054;-28
2023/10/29 08:34:11;;;;;;;4.00;2.60;;;;;;;13.39;71.39;98588.05;105150;1262;61134;-28
2023/10/29 08:36:39;;;;;;;5.20;2.20;;;;;;;13.27;71.15;98587.10;105309;1257;73762;-28
2023/10/29 08:39:06;;;;;;;3.70;2.30;;;;;;;13.26;71.59;98587.02;105189;1256;74490;-28
2023/10/29 08:41:34;;;;;;;3.40;2.00;;;;;;;13.24;71.79;98589.52;105379;1260;72372;-28
2023/10/29 08:44:01;;;;;;;3.80;2.40;;;;;;;13.21;71.80;98592.45;105160;1259;61323;-28
2023/10/29 08:46:28;;;;;;;5.60;2.40;;;;;;;13.25;72.08;98593.42;105293;1262;61428;-28
2023/10/29 08:48:56;;;;;;;3.50;2.30;;;;;;;13.29;71.61;98595.66;102855;1257;3269094;-28
2023/10/29 08:51:23;;;;;;;3.60;2.30;;;;;;;13.24;71.36;98602.08;105225;1257;74307;-28
2023/10/29 08:53:50;;;;;;;2.90;2.10;;;;;;;13.17;72.07;98616.56;105490;1254;72408;-28
2023/10/29 08:56:17;;;;;;;6.00;2.60;;;;;;;13.22;71.90;98618.23;105657;1254;61141;-27
2023/10/29 08:58:44;;;;;;;5.00;2.10;;;;;;;13.20;72.85;98617.92;105757;1257;61125;-28
2023/10/29 09:01:12;;;;;;;3.00;2.30;;;;;;;13.26;72.63;98614.75;105892;1254;73538;-28
2023/10/29 09:03:39;;;;;;;3.00;2.00;;;;;;;13.36;71.34;98611.85;105868;1254;74350;-28
2023/10/29 09:06:07;;;;;;;3.40;2.00;;;;;;;13.38;71.87;98610.75;105691;1254;73523;-28
2023/10/29 09:08:34;;;;;;;3.90;2.10;;;;;;;13.49;70.04;98609.48;105782;1256;61073;-28
2023/10/29 09:11:02;;;;;;;4.30;2.00;;;;;;;13.65;68.46;98605.90;105756;1256;61173;-29
2023/10/29 09:13:30;;;;;;;5.20;2.00;;;;;;;13.73;68.47;98610.95;105601;1254;73851;-28
2023/10/29 09:15:57;;;;;;;4.30;1.90;;;;;;;13.87;69.69;98616.70;105716;1254;74244;-28
2023/10/29 09:18:25;;;;;;;4.20;1.70;;;;;;;13.95;68.68;98612.64;105928;1254;72736;-28
2023/10/29 09:20:52;;;;;;;3.30;1.80;;;;;;;13.96;66.31;98608.13;105832;1254;61038;-28
2023/10/29 09:23:20;;;;;;;2.70;1.80;;;;;;;14.14;65.73;98611.83;105729;1254;61143;-28
2023/10/29 09:25:47;;;;;;;4.00;2.10;;;;;;;14.43;66.09;98609.61;105534;1254;73842;-27
2023/10/29 09:28:14;;;;;;;4.80;2.20;;;;;;;14.75;65.14;98614.45;105807;1254;74302;-28
2023/10/29 09:30:42;;;;;;;3.70;2.00;;;;;;;14.94;63.54;98610.56;105783;1256;72364;-28
2023/10/29 09:33:09;;;;;;;2.90;1.80;;;;;;;15.03;62.41;98608.73;105517;1254;61144;-28
2023/10/29 09:35:39;;;;;;;3.10;2.30;;;;;;;15.10;62.66;98608.77;105645;1257;61190;-28
2023/10/29 09:38:06;;;;;;;4.20;2.20;;;;;;;15.27;60.88;98603.36;105747;1255;73562;-28
2023/10/29 09:40:33;;;;;;;4.00;2.00;;;;;;;15.15;61.31;98606.63;105834;1256;74409;-28
2023/10/29 09:43:24;;;;;;;3.30;1.80;;;;;;;15.11;61.83;98606.46;105783;1256;72653;-28
2023/10/29 09:45:51;;;;;;;3.70;1.60;;;;;;;15.35;60.85;98602.17;105403;1262;61148;-29
2023/10/29 09:48:18;;;;;;;3.10;2.00;;;;;;;15.66;59.70;98603.70;105533;1258;61397;-28
2023/10/29 09:50:46;;;;;;;3.70;1.70;;;;;;;15.72;57.82;98592.63;105411;1257;73909;-28
2023/10/29 09:53:14;;;;;;;4.90;1.80;;;;;;;15.82;57.74;98593.19;105543;1262;74228;-28
2023/10/29 09:55:41;;;;;;;5.00;1.70;;;;;;;16.05;56.28;98588.23;105358;1264;72689;-28
2023/10/29 09:58:09;;;;;;;4.60;1.60;;;;;;;16.28;56.57;98591.20;105366;1257;61234;-28
2023/10/29 10:00:36;;;;;;;4.10;1.70;;;;;;;16.50;55.46;98595.48;105140;1257;61267;-28
2023/10/29 10:03:03;;;;;;;3.90;1.70;;;;;;;16.32;56.71;98594.17;105294;1256;73811;-28
2023/10/29 10:05:31;;;;;;;4.80;1.60;;;;;;;15.95;56.20;98585.02;105390;1261;74277;-28
2023/10/29 10:07:59;;;;;;;2.20;1.40;;;;;;;15.65;57.35;98587.37;105186;1259;71588;-28
2023/10/29 10:10:47;;;;;;;2.30;1.30;;;;;;;15.38;58.03;98601.02;105217;1257;61244;-28
2023/10/29 10:15:51;;;;;;;1.90;1.30;;;;;;;15.08;58.94;98604.17;103418;1282;600513;-27
2023/10/29 10:25:59;;;;;;;1.60;1.20;;;;;;;15.11;59.52;98613.48;102679;1290;600129;-28
2023/10/29 10:28:27;;;;;;;4.50;1.80;;;;;;;15.16;59.64;98614.04;104833;1270;61200;-28
2023/10/29 10:30:55;;;;;;;2.90;1.40;;;;;;;15.37;58.97;98607.22;104961;1264;61072;-28
2023/10/29 10:33:25;;;;;;;2.00;1.20;;;;;;;15.55;57.31;98604.06;104825;1270;69959;-28
2023/10/29 10:35:56;;;;;;;2.40;1.20;;;;;;;15.66;56.75;98600.27;104869;1271;74307;-28
2023/10/29 10:38:26;;;;;;;1.90;1.30;;;;;;;15.79;56.25;98597.20;104433;1272;3206856;-28
2023/10/29 10:48:33;;;;;;;2.40;1.40;;;;;;;15.89;56.09;98605.58;103333;1284;600202;-27
2023/10/29 10:51:02;;;;;;;1.20;0.90;;;;;;;16.23;55.31;98604.38;105146;1269;61324;-27
2023/10/29 10:53:30;;;;;;;2.70;1.40;;;;;;;16.51;54.95;98603.80;104959;1264;61183;-27
2023/10/29 10:55:59;;;;;;;1.60;1.10;;;;;;;16.83;53.59;98601.61;104902;1264;71005;-27
2023/10/29 10:58:31;;;;;;;1.70;1.10;;;;;;;17.05;51.94;98601.64;104789;1270;74268;-27
2023/10/29 11:01:00;;;;;;;1.80;1.20;;;;;;;17.12;51.27;98601.68;104106;1259;3318254;-28
2023/10/29 11:03:30;;;;;;;2.30;0.90;;;;;;;17.20;51.49;98597.05;105393;1253;61697;-28
2023/10/29 11:06:00;;;;;;;2.10;1.00;;;;;;;16.95;50.83;98592.40;105729;1251;61097;-28
2023/10/29 11:08:28;;;;;;;1.10;0.90;;;;;;;17.14;51.60;98604.45;105905;1256;71213;-28
2023/10/29 11:10:57;;;;;;;3.70;1.10;;;;;;;17.38;50.69;98601.48;105712;1251;74347;-28
2023/10/29 11:13:26;;;;;;;1.60;0.90;;;;;;;17.36;50.49;98598.23;105925;1256;71406;-28
2023/10/29 11:15:55;;;;;;;1.70;1.00;;;;;;;17.25;49.30;98596.34;105699;1251;61157;-28
2023/10/29 11:18:28;;;;;;;2.00;1.10;;;;;;;17.05;50.10;98602.16;105810;1254;61701;-28
2023/10/29 11:20:56;;;;;;;2.10;1.00;;;;;;;16.93;51.26;98604.65;105764;1254;71745;-28
2023/10/29 11:23:28;;;;;;;1.30;1.00;;;;;;;16.98;51.41;98604.12;105985;1257;74364;-28
2023/10/29 11:26:22;;;;;;;2.60;0.90;;;;;;;17.18;51.12;98610.46;105705;1257;72666;-28
2023/10/29 11:36:37;;;;;;;4.30;0.90;;;;;;;17.27;50.53;98600.77;102562;1295;599518;-27
2023/10/29 11:39:22;;;;;;;;;;;;;;;17.33;51.49;98596.97;104807;1269;61161;-27
2023/10/29 11:41:52;;;;;;;2.20;1.20;;;;;;;17.38;50.76;98593.59;105603;1257;61177;-27
2023/10/29 11:52:02;;;;;;;3.20;1.50;;;;;;;16.97;51.13;98592.31;103319;1283;599491;-27
2023/10/29 11:54:33;;;;;;;3.70;0.90;;;;;;;16.75;51.00;98587.80;104854;1270;61183;-27
2023/10/29 11:57:01;;;;;;;1.30;0.80;;;;;;;16.65;50.98;98592.91;104827;1270;61186;-27
2023/10/29 11:59:30;;;;;;;2.10;0.70;;;;;;;16.77;51.07;98589.01;104868;1270;72223;-27
2023/10/29 12:01:59;;;;;;;1.20;0.70;;;;;;;16.70;50.08;98580.09;104920;1269;74786;-27
2023/10/29 12:04:30;;;;;;;1.20;0.80;;;;;;;16.46;51.03;98583.88;102035;1273;3560121;-29
2023/10/29 12:06:59;;;;;;;2.10;1.00;;;;;;;16.44;50.89;98582.31;104877;1270;61169;-27